Time;durP1;ratioP1;P1;durP2;ratioP2;P2;SDS_P1;SDS_P2;PMS_P1;PMS_P2;Temp;Humidity;BMP_temperature;BMP_pressure;BME280_temperature;BME280_humidity;BME280_pressure;Samples;Min_cycle;Max_cycle;Signal;HPM_P1;HPM_P2
2022/06/30 00:06:59;;;;;;;11.65;7.82;;;;;;;19.09;74.39;100389.97;5119603;22;20065;-81
2022/06/30 01:51:20;;;;;;;17.50;10.43;;;;;;;17.65;83.92;100341.28;5093867;28;20416;-80
2022/06/30 01:53:57;;;;;;;14.27;9.82;;;;;;;17.58;84.39;100341.31;5075489;28;20068;-80
2022/06/30 01:56:45;;;;;;;15.43;10.00;;;;;;;17.65;84.17;100367.75;5075351;28;20044;-81
2022/06/30 01:59:21;;;;;;;16.77;10.35;;;;;;;17.53;84.02;100349.88;5075879;28;20105;-80
2022/06/30 02:07:14;;;;;;;17.40;10.52;;;;;;;17.56;84.33;100375.91;5074103;28;20063;-79
2022/06/30 02:09:41;;;;;;;23.92;10.45;;;;;;;17.46;84.80;100370.25;5073902;28;20084;-79
2022/06/30 02:14:53;;;;;;;15.45;10.40;;;;;;;17.49;84.90;100379.59;5077090;28;20063;-80
2022/06/30 02:17:20;;;;;;;13.52;10.68;;;;;;;17.49;84.90;100380.41;5076245;28;20079;-80
2022/06/30 02:19:47;;;;;;;14.73;10.10;;;;;;;17.48;85.13;100383.28;5077976;28;20095;-81
2022/06/30 02:22:15;;;;;;;16.42;10.10;;;;;;;17.54;84.82;100375.31;5079734;28;20094;-78
2022/06/30 02:24:42;;;;;;;13.50;10.15;;;;;;;17.58;84.11;100381.00;5079594;28;20512;-78
2022/06/30 02:27:08;;;;;;;13.15;10.10;;;;;;;17.53;84.35;100391.38;5078831;28;20404;-80
2022/06/30 02:29:35;;;;;;;15.75;10.65;;;;;;;17.50;84.46;100381.22;5079166;28;20057;-80
2022/06/30 02:32:02;;;;;;;18.65;10.70;;;;;;;17.54;84.48;100388.53;5078788;28;20049;-83
2022/06/30 02:34:28;;;;;;;16.08;10.52;;;;;;;17.56;84.52;100388.31;5078766;28;20052;-81
2022/06/30 02:36:55;;;;;;;12.48;10.65;;;;;;;17.48;85.05;100381.44;5078811;28;20049;-82
2022/06/30 02:39:24;;;;;;;15.65;10.80;;;;;;;17.54;84.99;100391.19;5078846;28;20500;-82
2022/06/30 02:41:51;;;;;;;19.70;11.30;;;;;;;17.57;84.86;100382.84;5078999;28;20477;-81
2022/06/30 02:44:18;;;;;;;20.83;12.25;;;;;;;17.59;84.61;100386.09;5078751;28;20584;-82
2022/06/30 02:46:44;;;;;;;18.40;12.40;;;;;;;17.54;85.07;100385.06;5098510;22;20047;-83
2022/06/30 02:49:11;;;;;;;18.23;11.65;;;;;;;17.55;85.23;100381.41;5102168;28;20047;-83
2022/06/30 02:51:38;;;;;;;20.08;11.88;;;;;;;17.50;85.76;100379.38;5111528;28;20087;-82
2022/06/30 02:54:04;;;;;;;15.50;11.38;;;;;;;17.49;85.59;100380.41;5111634;28;20048;-83
2022/06/30 02:56:32;;;;;;;21.80;11.48;;;;;;;17.45;86.05;100373.13;5106635;28;20044;-82
2022/06/30 02:58:59;;;;;;;16.55;12.07;;;;;;;17.46;86.24;100369.44;5090406;28;20045;-83
2022/06/30 03:01:25;;;;;;;21.27;11.70;;;;;;;17.45;86.45;100373.94;5090673;28;20060;-84
2022/06/30 03:03:52;;;;;;;21.65;11.70;;;;;;;17.42;86.67;100382.28;5090408;28;20044;-83
2022/06/30 03:06:19;;;;;;;19.52;12.05;;;;;;;17.42;87.13;100374.34;5091256;28;20052;-83
2022/06/30 03:08:45;;;;;;;22.83;11.52;;;;;;;17.43;87.12;100385.72;5089597;28;20056;-82
2022/06/30 03:11:16;;;;;;;18.77;12.30;;;;;;;17.41;87.43;100383.28;5088423;28;20079;-84
2022/06/30 03:13:45;;;;;;;16.73;11.55;;;;;;;17.44;87.30;100385.53;5087122;28;20041;-82
2022/06/30 03:16:12;;;;;;;15.05;11.20;;;;;;;17.49;87.20;100400.75;5080653;28;20064;-82
2022/06/30 03:18:39;;;;;;;16.08;12.15;;;;;;;17.47;87.17;100390.41;5079046;28;20048;-81
2022/06/30 03:21:06;;;;;;;17.40;12.10;;;;;;;17.44;86.92;100397.94;5087609;28;20067;-82
2022/06/30 03:23:32;;;;;;;16.30;12.00;;;;;;;17.32;87.20;100384.53;5084538;28;20123;-82
2022/06/30 03:25:59;;;;;;;16.20;12.27;;;;;;;17.31;87.11;100393.47;5084825;28;20080;-82
2022/06/30 03:28:26;;;;;;;15.75;11.68;;;;;;;17.21;87.49;100382.50;5085277;28;20146;-83
2022/06/30 03:30:56;;;;;;;19.38;11.60;;;;;;;17.26;87.46;100382.69;5085494;28;20132;-84
2022/06/30 03:33:23;;;;;;;16.38;12.13;;;;;;;17.29;87.16;100381.47;5084468;28;20044;-81
2022/06/30 03:35:50;;;;;;;15.40;11.52;;;;;;;17.29;87.46;100390.22;5082299;28;20075;-81
2022/06/30 03:38:17;;;;;;;17.02;12.32;;;;;;;17.24;87.72;100374.97;5080810;28;20060;-81
2022/06/30 03:40:43;;;;;;;19.40;12.20;;;;;;;17.27;87.46;100383.50;5081954;28;20079;-81
2022/06/30 03:43:11;;;;;;;17.67;11.52;;;;;;;17.34;87.03;100384.31;5081277;28;20076;-79
2022/06/30 03:45:38;;;;;;;19.20;11.98;;;;;;;17.29;87.03;100378.84;5080933;28;20048;-82
2022/06/30 03:48:07;;;;;;;17.13;11.50;;;;;;;17.37;87.02;100382.09;5084696;28;20055;-82
2022/06/30 03:50:34;;;;;;;15.32;11.70;;;;;;;17.41;86.50;100385.94;5086349;28;20063;-82
2022/06/30 03:53:02;;;;;;;13.93;11.57;;;;;;;17.44;86.64;100390.00;5089959;28;20060;-83
2022/06/30 03:55:29;;;;;;;19.65;12.60;;;;;;;17.46;86.51;100388.78;5087100;28;20062;-82
2022/06/30 03:57:56;;;;;;;20.77;13.00;;;;;;;17.51;86.28;100386.31;5086088;28;20512;-82
2022/06/30 04:00:23;;;;;;;18.13;13.73;;;;;;;17.54;86.30;100380.59;5086861;28;20173;-82
2022/06/30 04:02:50;;;;;;;15.75;14.10;;;;;;;17.56;86.47;100378.56;5080722;28;20044;-81
2022/06/30 04:05:18;;;;;;;16.15;14.27;;;;;;;17.69;86.40;100375.09;5082172;28;20420;-80
2022/06/30 04:07:46;;;;;;;19.90;13.90;;;;;;;18.20;85.40;100388.31;5080447;28;20063;-81
2022/06/30 04:10:15;;;;;;;17.60;12.75;;;;;;;19.04;82.38;100391.66;5080741;28;20044;-81
2022/06/30 04:12:42;;;;;;;21.33;13.85;;;;;;;19.89;78.15;100404.06;5078954;28;20091;-80
2022/06/30 04:15:09;;;;;;;18.83;12.18;;;;;;;20.23;75.27;100393.06;5077030;28;20140;-82
2022/06/30 04:17:36;;;;;;;14.93;11.20;;;;;;;20.15;74.81;100384.34;5081801;28;20044;-81
2022/06/30 04:20:04;;;;;;;13.15;11.77;;;;;;;20.98;71.93;100391.53;5082006;28;20056;-82
2022/06/30 04:22:33;;;;;;;13.55;11.48;;;;;;;20.18;73.93;100375.13;5081874;28;20056;-82
2022/06/30 04:25:00;;;;;;;12.52;10.48;;;;;;;20.73;72.61;100383.75;5081487;28;20049;-82
2022/06/30 04:27:26;;;;;;;21.50;11.82;;;;;;;20.98;71.64;100374.75;5079765;28;20049;-82
2022/06/30 04:29:53;;;;;;;16.25;12.18;;;;;;;20.81;71.62;100372.75;5077525;28;20108;-80
2022/06/30 04:35:06;;;;;;;15.82;10.77;;;;;;;20.93;71.27;100366.66;5076872;28;20101;-81
2022/06/30 04:37:34;;;;;;;16.55;11.50;;;;;;;21.27;71.44;100367.75;5076773;28;20151;-83
2022/06/30 04:42:45;;;;;;;14.35;10.95;;;;;;;21.56;70.07;100364.13;5075988;28;20055;-82
2022/06/30 04:45:12;;;;;;;16.88;11.82;;;;;;;20.71;72.68;100356.59;5081753;28;20084;-82
2022/06/30 04:47:42;;;;;;;14.82;12.02;;;;;;;20.49;74.39;100350.97;5081601;28;20052;-83
2022/06/30 04:50:09;;;;;;;15.55;11.38;;;;;;;21.08;72.70;100357.19;5081863;28;20048;-84
2022/06/30 04:52:37;;;;;;;14.43;11.55;;;;;;;21.61;71.28;100363.41;5083465;28;20082;-83
2022/06/30 04:55:05;;;;;;;15.63;11.30;;;;;;;21.81;71.21;100363.81;5081865;28;20147;-85
2022/06/30 04:57:31;;;;;;;16.08;10.85;;;;;;;22.24;69.67;100365.19;5081169;28;20151;-84
2022/06/30 04:59:58;;;;;;;16.25;11.40;;;;;;;22.67;67.52;100356.63;5081390;28;20530;-83
2022/06/30 05:02:24;;;;;;;13.23;11.65;;;;;;;22.97;66.92;100362.44;5082338;28;20048;-84
2022/06/30 05:04:54;;;;;;;12.48;10.88;;;;;;;23.23;66.05;100374.28;5081819;28;20048;-83
2022/06/30 05:07:21;;;;;;;12.75;10.30;;;;;;;23.21;66.13;100367.56;5082416;28;20052;-83
2022/06/30 05:09:49;;;;;;;16.65;11.10;;;;;;;22.32;69.15;100364.78;5081656;28;20075;-83
2022/06/30 05:12:16;;;;;;;16.20;10.80;;;;;;;21.37;72.91;100351.97;5080383;28;20083;-84
2022/06/30 05:14:44;;;;;;;14.98;11.15;;;;;;;21.73;73.02;100359.69;5080135;28;20045;-85
2022/06/30 05:17:11;;;;;;;15.45;11.25;;;;;;;21.85;71.75;100365.75;5083617;28;20058;-82
2022/06/30 05:19:41;;;;;;;15.40;10.75;;;;;;;22.29;70.96;100357.28;5080275;28;20442;-83
2022/06/30 05:22:07;;;;;;;13.98;11.27;;;;;;;23.06;68.31;100358.31;5088482;28;20065;-83
2022/06/30 05:27:20;;;;;;;12.15;10.95;;;;;;;24.33;63.86;100367.91;5089385;28;20083;-84
2022/06/30 05:29:46;;;;;;;18.38;11.32;;;;;;;23.48;65.07;100358.63;5088848;28;20052;-84
2022/06/30 05:32:13;;;;;;;13.57;10.70;;;;;;;24.50;62.55;100375.84;5090130;28;20055;-83
2022/06/30 05:34:40;;;;;;;23.90;11.82;;;;;;;25.01;61.11;100361.03;5087882;28;20103;-84
2022/06/30 05:37:07;;;;;;;21.90;11.98;;;;;;;25.47;59.41;100358.59;5086916;28;20094;-84
2022/06/30 05:39:34;;;;;;;16.20;10.80;;;;;;;25.26;60.22;100362.22;5087130;28;20111;-84
2022/06/30 05:42:05;;;;;;;15.13;9.95;;;;;;;25.48;59.15;100351.38;5088427;28;20048;-84
2022/06/30 05:44:33;;;;;;;12.52;10.10;;;;;;;25.38;58.95;100352.94;5085279;28;20060;-82
2022/06/30 05:47:00;;;;;;;13.80;9.75;;;;;;;26.11;57.47;100353.72;5079824;28;20049;-82
2022/06/30 05:49:27;;;;;;;15.20;10.00;;;;;;;26.27;56.71;100351.09;5082083;28;20135;-85
2022/06/30 05:51:54;;;;;;;10.90;9.77;;;;;;;25.87;57.06;100349.94;5084602;28;20052;-85
2022/06/30 05:54:25;;;;;;;12.55;10.10;;;;;;;26.06;56.68;100361.75;5088061;28;20131;-84
2022/06/30 05:56:54;;;;;;;11.57;8.80;;;;;;;27.64;52.15;100377.81;5086005;28;20095;-84
2022/06/30 05:59:25;;;;;;;11.70;8.98;;;;;;;26.88;53.21;100367.22;5087556;28;20310;-85
2022/06/30 06:01:54;;;;;;;10.63;8.57;;;;;;;27.47;51.74;100342.38;5088224;28;20539;-83
2022/06/30 06:04:44;;;;;;;12.52;9.23;;;;;;;28.73;49.37;100365.88;5086266;28;20037;-86
2022/06/30 06:07:58;;;;;;;10.90;9.43;;;;;;;28.99;48.07;100361.06;5068571;28;20109;-86
2022/06/30 06:10:24;;;;;;;16.25;9.43;;;;;;;27.40;51.56;100338.13;5062842;28;20067;-83
2022/06/30 06:12:51;;;;;;;10.65;8.57;;;;;;;29.01;48.87;100383.13;5086706;28;20053;-82
2022/06/30 06:15:18;;;;;;;11.90;9.55;;;;;;;29.40;47.26;100385.66;5088950;28;20045;-83
2022/06/30 06:17:53;;;;;;;12.80;8.65;;;;;;;29.57;47.59;100379.84;5085804;28;20056;-84
2022/06/30 06:23:10;;;;;;;12.32;8.93;;;;;;;30.16;43.76;100396.66;5083544;28;20079;-83
2022/06/30 06:25:37;;;;;;;12.35;8.35;;;;;;;30.83;43.12;100381.03;5084265;28;20075;-84
2022/06/30 06:30:51;;;;;;;9.38;8.27;;;;;;;29.73;45.40;100383.19;5084125;28;20083;-84
2022/06/30 06:33:19;;;;;;;9.07;7.65;;;;;;;29.45;45.46;100365.16;5086014;28;20045;-83
2022/06/30 06:35:46;;;;;;;11.10;8.20;;;;;;;28.40;48.17;100358.56;5086143;28;20121;-84
2022/06/30 06:38:13;;;;;;;11.57;8.27;;;;;;;29.52;45.68;100361.03;5084681;28;20053;-84
2022/06/30 06:40:45;;;;;;;9.77;8.20;;;;;;;29.94;44.43;100351.31;5084797;28;20048;-84
2022/06/30 06:43:16;;;;;;;12.18;7.95;;;;;;;31.18;42.89;100385.84;5081277;28;20056;-84
2022/06/30 06:45:48;;;;;;;14.07;7.75;;;;;;;31.15;41.92;100375.63;5083308;28;20059;-83
2022/06/30 06:48:19;;;;;;;10.30;7.57;;;;;;;31.65;41.00;100352.16;5082711;28;20048;-84
2022/06/30 06:50:52;;;;;;;11.37;7.30;;;;;;;31.37;41.78;100366.78;5084670;28;20105;-85
2022/06/30 06:53:19;;;;;;;10.18;7.18;;;;;;;31.04;40.42;100355.25;5082286;28;20068;-84
2022/06/30 06:56:00;;;;;;;10.50;7.68;;;;;;;30.38;42.77;100373.34;5084297;28;20394;-83
2022/06/30 06:58:27;;;;;;;;;;;;;;;31.31;40.96;100378.81;5061882;28;20151;-84
2022/06/30 07:00:56;;;;;;;14.40;7.53;;;;;;;30.66;41.98;100360.00;5062235;28;19966;-84
2022/06/30 07:06:24;;;;;;;9.88;8.07;;;;;;;31.90;39.90;100382.50;5060386;28;20057;-83
2022/06/30 07:08:51;;;;;;;12.10;8.48;;;;;;;31.91;40.97;100389.50;5079396;28;20048;-84
2022/06/30 07:11:18;;;;;;;8.18;7.25;;;;;;;32.40;38.90;100410.34;5077888;28;20052;-85
2022/06/30 07:13:48;;;;;;;15.27;7.45;;;;;;;32.05;40.34;100405.72;5078074;28;20109;-84
2022/06/30 07:16:16;;;;;;;12.02;7.18;;;;;;;32.82;38.30;100410.97;5076962;28;20070;-84
2022/06/30 07:18:43;;;;;;;14.75;8.10;;;;;;;32.21;38.38;100396.13;5079189;28;20040;-85
2022/06/30 07:21:11;;;;;;;13.60;8.23;;;;;;;32.02;39.88;100406.34;5079387;28;20101;-83
2022/06/30 07:23:42;;;;;;;11.98;8.00;;;;;;;32.29;40.33;100403.56;5083002;28;20074;-83
2022/06/30 07:26:11;;;;;;;17.50;7.88;;;;;;;32.10;39.73;100400.19;5082514;28;20366;-83
2022/06/30 07:28:38;;;;;;;17.63;7.30;;;;;;;32.51;38.69;100410.91;5084768;28;20045;-83
2022/06/30 07:31:04;;;;;;;11.55;6.78;;;;;;;31.88;40.10;100385.50;5082878;28;20052;-83
2022/06/30 07:33:32;;;;;;;9.48;6.78;;;;;;;32.82;37.81;100416.41;5082808;28;20075;-84
2022/06/30 07:35:59;;;;;;;12.27;7.40;;;;;;;32.36;37.93;100405.84;5082972;28;20567;-83
2022/06/30 07:38:26;;;;;;;10.00;7.03;;;;;;;32.66;37.18;100414.03;5082429;28;20053;-82
2022/06/30 07:40:54;;;;;;;11.35;6.50;;;;;;;33.13;36.52;100419.91;5083119;28;20048;-82
2022/06/30 07:43:22;;;;;;;12.63;7.50;;;;;;;33.53;35.75;100422.69;5081463;28;20048;-82
2022/06/30 07:45:52;;;;;;;10.95;6.95;;;;;;;33.18;36.17;100417.06;5082933;28;20049;-81
2022/06/30 07:48:18;;;;;;;8.43;6.22;;;;;;;32.99;35.58;100392.13;5082349;28;20310;-83
2022/06/30 07:50:45;;;;;;;11.27;6.72;;;;;;;33.46;34.18;100425.03;5083448;28;20049;-83
2022/06/30 07:53:19;;;;;;;9.98;6.15;;;;;;;32.87;35.89;100413.56;5082853;28;20072;-83
2022/06/30 07:55:46;;;;;;;12.55;6.43;;;;;;;33.86;34.17;100412.25;5083390;28;20049;-83
2022/06/30 07:58:14;;;;;;;13.65;6.38;;;;;;;32.99;35.62;100465.28;5081653;28;20048;-83
2022/06/30 08:00:41;;;;;;;12.88;6.25;;;;;;;32.95;35.42;100437.22;5082160;28;20054;-82
2022/06/30 08:03:07;;;;;;;10.25;6.80;;;;;;;32.57;36.62;100437.56;5081541;28;20086;-81
2022/06/30 08:05:34;;;;;;;9.07;6.78;;;;;;;33.19;35.16;100434.13;5081124;28;20052;-82
2022/06/30 08:08:01;;;;;;;12.27;6.00;;;;;;;33.29;35.11;100434.69;5080513;28;20500;-81
2022/06/30 08:10:27;;;;;;;11.23;6.30;;;;;;;33.20;34.98;100422.19;5081385;28;20087;-82
2022/06/30 08:12:54;;;;;;;12.50;6.40;;;;;;;33.45;34.73;100418.81;5081893;28;20140;-82
2022/06/30 08:15:22;;;;;;;7.57;5.75;;;;;;;33.60;33.23;100426.50;5081223;28;20048;-82
2022/06/30 08:17:49;;;;;;;6.45;5.00;;;;;;;33.79;32.56;100420.84;5080719;28;20175;-82
2022/06/30 08:20:16;;;;;;;7.15;4.65;;;;;;;33.26;32.92;100418.22;5081170;28;20049;-83
2022/06/30 08:22:43;;;;;;;9.52;4.88;;;;;;;33.32;32.70;100414.28;5082494;28;20048;-82
2022/06/30 08:25:09;;;;;;;8.80;5.85;;;;;;;32.80;35.04;100451.13;5080474;28;20076;-82
2022/06/30 08:27:36;;;;;;;8.63;5.43;;;;;;;33.10;35.28;100428.66;5081222;28;20072;-82
2022/06/30 08:30:04;;;;;;;7.15;4.55;;;;;;;32.95;33.77;100416.31;5080578;28;20055;-82
2022/06/30 08:32:32;;;;;;;8.25;4.70;;;;;;;33.08;32.77;100421.97;5081498;28;20460;-81
2022/06/30 08:34:59;;;;;;;6.80;5.07;;;;;;;33.15;32.83;100395.19;5081082;28;20119;-82
2022/06/30 08:37:25;;;;;;;7.03;4.63;;;;;;;32.93;33.70;100412.31;5080479;28;20056;-81
2022/06/30 08:42:37;;;;;;;12.05;5.82;;;;;;;32.50;34.50;100385.75;5079922;28;20163;-82
2022/06/30 08:45:17;;;;;;;8.30;5.70;;;;;;;32.65;34.60;100393.47;5079947;28;20109;-83
2022/06/30 08:47:46;;;;;;;9.48;5.80;;;;;;;32.59;34.67;100388.50;5125687;22;20075;-81
2022/06/30 08:50:15;;;;;;;9.85;5.25;;;;;;;32.92;34.88;100395.25;5143606;27;20044;-80
2022/06/30 08:52:46;;;;;;;8.07;5.63;;;;;;;33.57;34.95;100396.50;5128469;28;20058;-81
2022/06/30 08:55:14;;;;;;;8.55;5.15;;;;;;;33.03;34.96;100401.22;5125500;28;20040;-81
2022/06/30 08:57:44;;;;;;;8.13;5.35;;;;;;;33.46;34.18;100397.91;5117088;28;20056;-83
2022/06/30 09:00:12;;;;;;;11.80;5.95;;;;;;;33.36;34.50;100392.78;5107915;28;20052;-82
2022/06/30 09:02:39;;;;;;;10.40;5.10;;;;;;;33.40;33.70;100394.53;5108222;28;20044;-81
2022/06/30 09:05:08;;;;;;;9.52;5.20;;;;;;;32.49;34.94;100386.03;5107944;28;20040;-81
2022/06/30 09:07:38;;;;;;;7.50;4.82;;;;;;;32.73;34.03;100385.72;5105959;28;20058;-81
2022/06/30 09:10:06;;;;;;;8.88;5.82;;;;;;;32.96;34.00;100390.81;5106090;28;20054;-80
2022/06/30 09:12:33;;;;;;;11.52;5.60;;;;;;;32.79;34.58;100384.50;5105083;28;20104;-80
2022/06/30 09:15:00;;;;;;;11.45;5.38;;;;;;;33.18;34.40;100381.03;5106906;28;20054;-83
2022/06/30 09:17:30;;;;;;;12.82;5.18;;;;;;;32.55;34.70;100369.38;5106377;28;20147;-81
2022/06/30 09:19:59;;;;;;;10.57;5.00;;;;;;;32.34;35.51;100370.94;5106519;28;20484;-81
2022/06/30 09:22:29;;;;;;;8.90;5.47;;;;;;;32.46;34.71;100368.50;5105706;28;20077;-82
2022/06/30 09:25:01;;;;;;;10.18;4.80;;;;;;;32.64;33.85;100372.09;5107313;28;20054;-81
2022/06/30 09:27:30;;;;;;;8.25;5.30;;;;;;;32.80;34.94;100369.84;5103424;28;20134;-79
2022/06/30 09:30:01;;;;;;;7.85;5.07;;;;;;;32.28;35.17;100364.84;5106087;28;20063;-81
2022/06/30 09:32:27;;;;;;;8.90;5.03;;;;;;;32.02;34.67;100354.91;5105072;28;20086;-82
2022/06/30 09:35:08;;;;;;;12.23;5.03;;;;;;;32.30;35.59;100433.03;5105277;28;20048;-81
2022/06/30 09:37:37;;;;;;;11.85;4.85;;;;;;;32.35;35.60;100398.84;5103084;28;20052;-81
2022/06/30 09:40:04;;;;;;;15.43;5.60;;;;;;;31.75;36.05;100389.03;5100931;28;20072;-81
2022/06/30 09:42:40;;;;;;;13.90;5.15;;;;;;;32.03;35.71;100383.56;5098969;28;20075;-80
2022/06/30 09:45:08;;;;;;;10.23;5.15;;;;;;;32.02;36.15;100376.56;5105026;28;20051;-81
2022/06/30 09:47:36;;;;;;;14.23;6.00;;;;;;;31.58;36.69;100365.28;5103414;28;20087;-80
2022/06/30 09:50:04;;;;;;;16.38;6.22;;;;;;;31.22;38.23;100365.19;5104197;28;20072;-79
2022/06/30 09:52:32;;;;;;;21.35;5.93;;;;;;;30.78;39.86;100360.28;5103738;28;20052;-81
2022/06/30 09:55:01;;;;;;;17.15;5.68;;;;;;;29.83;42.50;100350.66;5103559;28;20052;-78
2022/06/30 09:57:30;;;;;;;14.65;6.15;;;;;;;29.75;43.13;100351.31;5101723;28;20155;-78
2022/06/30 10:00:04;;;;;;;15.50;6.20;;;;;;;29.93;42.27;100353.22;5103238;28;20076;-82
2022/06/30 10:02:32;;;;;;;10.18;5.50;;;;;;;30.18;42.69;100351.28;5104025;28;20500;-78
2022/06/30 10:05:00;;;;;;;11.25;5.53;;;;;;;30.50;41.46;100359.41;5104851;28;20040;-80
2022/06/30 10:07:27;;;;;;;12.38;5.68;;;;;;;30.11;41.14;100353.53;5102510;28;20052;-80
2022/06/30 10:09:54;;;;;;;13.43;5.63;;;;;;;30.37;40.50;100357.44;5102808;28;20052;-79
2022/06/30 10:12:24;;;;;;;11.77;4.95;;;;;;;30.29;40.90;100341.91;5103117;28;20101;-79
2022/06/30 10:14:52;;;;;;;15.75;5.88;;;;;;;30.42;40.49;100341.16;5101339;28;20075;-79
2022/06/30 10:17:23;;;;;;;11.35;5.60;;;;;;;30.55;40.20;100337.72;5101239;28;20075;-80
2022/06/30 10:19:51;;;;;;;15.57;5.35;;;;;;;30.15;40.84;100336.47;5101868;28;20074;-81
2022/06/30 10:22:19;;;;;;;10.07;4.95;;;;;;;30.32;40.75;100342.13;5104471;28;20107;-80
2022/06/30 10:24:46;;;;;;;15.82;5.70;;;;;;;30.36;40.34;100336.94;5115001;28;20044;-78
2022/06/30 10:27:14;;;;;;;14.88;5.88;;;;;;;30.16;40.75;100339.97;5115908;28;20054;-81
2022/06/30 10:29:52;;;;;;;10.25;5.10;;;;;;;30.03;40.88;100328.03;5115671;28;20055;-78
2022/06/30 10:32:49;;;;;;;16.67;5.80;;;;;;;30.06;40.81;100334.72;5110068;28;20075;-79
2022/06/30 10:35:22;;;;;;;10.88;5.70;;;;;;;30.11;41.40;100332.75;5098385;28;20040;-80
2022/06/30 10:37:55;;;;;;;16.38;5.47;;;;;;;30.07;41.48;100337.13;5105018;28;20052;-78
2022/06/30 10:40:34;;;;;;;9.77;5.65;;;;;;;30.07;41.80;100333.63;5106768;28;20108;-81
2022/06/30 10:43:01;;;;;;;12.00;6.03;;;;;;;30.15;40.13;100332.97;5108830;28;20067;-79
2022/06/30 10:45:52;;;;;;;16.88;5.53;;;;;;;29.89;40.61;100333.31;5108674;28;20055;-80
2022/06/30 10:48:18;;;;;;;12.63;5.53;;;;;;;30.38;39.95;100407.63;5106079;28;20062;-80
2022/06/30 10:50:45;;;;;;;11.52;5.30;;;;;;;30.48;39.19;100385.91;5108260;28;20048;-80
2022/06/30 10:53:17;;;;;;;15.25;5.70;;;;;;;30.54;38.94;100349.63;5109389;28;20304;-79
2022/06/30 10:55:45;;;;;;;12.38;4.85;;;;;;;30.59;38.33;100373.06;5110124;28;20083;-80
2022/06/30 10:58:19;;;;;;;10.00;4.90;;;;;;;30.33;38.64;100361.81;5113038;28;20040;-79
2022/06/30 11:00:50;;;;;;;13.52;5.50;;;;;;;30.30;38.78;100343.53;5113464;28;20074;-80
2022/06/30 11:04:00;;;;;;;8.95;5.22;;;;;;;30.12;38.38;100328.97;5109597;28;20047;-80
2022/06/30 11:07:06;;;;;;;7.43;5.03;;;;;;;30.49;39.41;100341.59;5108731;28;20060;-80
2022/06/30 11:10:21;;;;;;;13.40;4.95;;;;;;;30.49;37.35;100324.59;5107953;28;20052;-80
2022/06/30 11:12:54;;;;;;;9.05;4.45;;;;;;;30.27;38.49;100328.72;5103849;28;20044;-79
2022/06/30 11:15:21;;;;;;;10.57;4.70;;;;;;;30.18;38.35;100324.31;5107228;28;20046;-80
2022/06/30 11:17:53;;;;;;;10.80;4.68;;;;;;;30.17;38.33;100320.00;5108034;28;20058;-83
2022/06/30 11:20:19;;;;;;;10.82;5.00;;;;;;;30.67;38.50;100316.47;5108204;28;20044;-82
2022/06/30 11:22:46;;;;;;;9.38;4.97;;;;;;;30.50;38.56;100310.00;5109495;28;20113;-80
2022/06/30 11:27:17;;;;;;;7.45;5.15;;;;;;;31.09;37.08;100311.13;5110319;28;20048;-81
2022/06/30 11:28:01;;;;;;;7.20;4.25;;;;;;;30.92;38.14;100311.69;5112358;28;20048;-80
2022/06/30 11:30:32;;;;;;;7.90;5.05;;;;;;;30.75;37.23;100314.16;5110977;28;20044;-80
2022/06/30 11:33:01;;;;;;;10.23;4.40;;;;;;;30.53;37.81;100304.81;5109241;28;20048;-79
2022/06/30 11:35:28;;;;;;;8.00;4.47;;;;;;;30.14;38.58;100304.41;5104112;28;20048;-82
2022/06/30 11:37:55;;;;;;;7.50;5.03;;;;;;;30.31;38.59;100300.03;5107802;28;20071;-80
2022/06/30 11:40:22;;;;;;;9.82;5.07;;;;;;;29.71;39.31;100282.88;5108616;28;20412;-79
2022/06/30 11:42:50;;;;;;;8.15;4.85;;;;;;;29.90;39.41;100285.56;5112264;28;20101;-79
2022/06/30 11:45:18;;;;;;;12.02;5.07;;;;;;;30.52;39.39;100291.59;5110467;28;20044;-81
2022/06/30 11:47:52;;;;;;;11.50;4.90;;;;;;;30.40;38.04;100283.16;5111663;28;20139;-79
2022/06/30 11:50:23;;;;;;;10.40;5.13;;;;;;;30.44;38.93;100278.78;5113082;28;20103;-79
2022/06/30 11:52:51;;;;;;;9.27;4.80;;;;;;;30.32;37.58;100279.25;5110670;28;20059;-81
2022/06/30 11:55:19;;;;;;;11.57;4.50;;;;;;;30.36;37.77;100267.56;5109083;28;20499;-79
2022/06/30 11:57:47;;;;;;;7.05;5.00;;;;;;;30.63;39.26;100266.06;5109121;28;20101;-79
2022/06/30 12:00:16;;;;;;;11.90;5.40;;;;;;;30.56;38.64;100262.91;5108195;28;20097;-80
2022/06/30 12:02:44;;;;;;;8.73;4.47;;;;;;;30.36;37.10;100266.75;5107953;28;20051;-81
2022/06/30 12:05:14;;;;;;;9.43;5.13;;;;;;;30.36;37.66;100261.38;5108496;28;20051;-81
2022/06/30 12:07:44;;;;;;;6.70;4.68;;;;;;;30.27;38.17;100252.34;5108014;28;20107;-80
2022/06/30 12:10:13;;;;;;;9.75;5.43;;;;;;;30.29;38.75;100244.75;5107488;28;20101;-79
2022/06/30 12:12:40;;;;;;;10.18;5.53;;;;;;;30.23;39.94;100251.34;5106298;28;20067;-81
2022/06/30 12:15:09;;;;;;;13.85;5.65;;;;;;;30.30;39.99;100252.56;5106144;28;20044;-80
2022/06/30 12:17:38;;;;;;;12.07;5.88;;;;;;;30.32;38.53;100234.16;5105944;28;20048;-80
2022/06/30 12:20:06;;;;;;;13.18;6.07;;;;;;;30.52;38.70;100240.31;5105209;28;20052;-79
2022/06/30 12:22:34;;;;;;;10.48;5.55;;;;;;;30.80;38.25;100265.47;5106167;28;20048;-78
2022/06/30 12:25:05;;;;;;;7.30;5.20;;;;;;;30.64;37.60;100263.06;5106262;28;20070;-79
2022/06/30 12:27:36;;;;;;;10.45;5.57;;;;;;;31.00;37.30;100244.25;5105556;28;20089;-78
2022/06/30 12:30:07;;;;;;;8.15;4.88;;;;;;;30.99;36.69;100222.94;5105483;28;20790;-81
2022/06/30 12:32:33;;;;;;;10.18;5.28;;;;;;;30.86;37.67;100221.03;5105868;28;20048;-81
2022/06/30 12:35:01;;;;;;;8.18;5.10;;;;;;;30.78;37.55;100219.03;5106260;28;20044;-81
2022/06/30 12:37:30;;;;;;;10.88;5.30;;;;;;;30.37;37.08;100211.69;5105370;28;20131;-81
2022/06/30 12:39:58;;;;;;;8.82;5.43;;;;;;;30.43;38.01;100207.78;5105519;28;20040;-81
2022/06/30 12:42:27;;;;;;;9.35;5.90;;;;;;;30.28;38.23;100211.56;5106078;28;20194;-80
2022/06/30 12:44:54;;;;;;;9.55;5.88;;;;;;;29.97;37.43;100195.06;5105562;28;20449;-79
2022/06/30 12:47:22;;;;;;;9.57;5.70;;;;;;;29.89;38.47;100195.75;5106495;28;20048;-81
2022/06/30 12:49:49;;;;;;;7.82;5.40;;;;;;;30.29;39.82;100196.16;5105301;28;20051;-79
2022/06/30 12:52:28;;;;;;;12.32;5.70;;;;;;;30.81;38.63;100192.22;5105811;28;20059;-82
2022/06/30 12:54:59;;;;;;;10.90;5.68;;;;;;;31.27;37.53;100194.00;5105835;28;20058;-81
2022/06/30 12:57:27;;;;;;;9.10;5.10;;;;;;;31.24;36.85;100200.81;5105632;28;20074;-80
2022/06/30 12:59:55;;;;;;;8.32;5.57;;;;;;;31.23;37.91;100187.59;5106030;28;20052;-81
2022/06/30 13:02:34;;;;;;;10.55;5.28;;;;;;;31.22;37.65;100191.41;5105694;28;20045;-80
2022/06/30 13:05:01;;;;;;;9.77;5.35;;;;;;;31.25;37.64;100186.19;5105107;28;20123;-83
2022/06/30 13:07:27;;;;;;;13.43;5.22;;;;;;;31.28;37.11;100177.47;5105635;28;20058;-80
2022/06/30 13:09:54;;;;;;;9.40;4.97;;;;;;;31.21;36.84;100179.00;5106413;28;20078;-79
2022/06/30 13:12:21;;;;;;;7.30;5.30;;;;;;;31.27;37.23;100221.81;5106731;28;20048;-82
2022/06/30 13:14:49;;;;;;;7.63;5.43;;;;;;;30.64;37.70;100198.25;5106941;28;20059;-80
2022/06/30 13:17:18;;;;;;;9.98;5.63;;;;;;;30.67;37.79;100172.56;5105590;28;20052;-81
2022/06/30 13:19:45;;;;;;;8.90;5.63;;;;;;;30.82;38.14;100161.41;5105869;28;20063;-80
2022/06/30 13:22:11;;;;;;;10.80;5.53;;;;;;;30.79;37.16;100155.81;5106232;28;20105;-79
2022/06/30 13:24:39;;;;;;;10.23;5.32;;;;;;;30.83;37.24;100156.81;5106057;28;20051;-81
2022/06/30 13:27:06;;;;;;;7.57;5.60;;;;;;;30.34;37.15;100139.41;5106476;28;20043;-81
2022/06/30 13:29:34;;;;;;;8.13;5.50;;;;;;;30.25;37.01;100143.88;5107090;28;20052;-80
2022/06/30 13:32:22;;;;;;;11.38;6.03;;;;;;;30.65;36.80;100145.03;5106452;28;20044;-81
2022/06/30 13:34:51;;;;;;;14.65;5.70;;;;;;;30.59;37.08;100136.25;5106377;28;20070;-81
2022/06/30 13:37:18;;;;;;;11.68;5.53;;;;;;;30.74;37.02;100120.81;5106824;28;20511;-81
2022/06/30 13:39:44;;;;;;;8.60;5.20;;;;;;;30.71;35.99;100127.63;5107559;28;20101;-80
2022/06/30 13:42:11;;;;;;;9.45;5.60;;;;;;;30.91;36.49;100113.69;5104303;28;20040;-78